sensor_id;sensor_type;location;lat;lon;timestamp;P1;durP1;ratioP1;P2;durP2;ratioP2
82869;SDS011;72645;47.136;15.420;2024-01-30T00:00:42;8.70;;;4.10;;
82869;SDS011;72645;47.136;15.420;2024-01-30T00:03:14;7.70;;;4.40;;
82869;SDS011;72645;47.136;15.420;2024-01-30T00:05:45;8.90;;;5.00;;
82869;SDS011;72645;47.136;15.420;2024-01-30T00:08:16;9.30;;;5.10;;
82869;SDS011;72645;47.136;15.420;2024-01-30T00:10:47;9.40;;;5.00;;
82869;SDS011;72645;47.136;15.420;2024-01-30T00:13:18;10.70;;;6.00;;
82869;SDS011;72645;47.136;15.420;2024-01-30T00:15:51;13.00;;;6.80;;
82869;SDS011;72645;47.136;15.420;2024-01-30T00:18:22;12.70;;;5.60;;
82869;SDS011;72645;47.136;15.420;2024-01-30T00:20:53;11.40;;;6.40;;
82869;SDS011;72645;47.136;15.420;2024-01-30T00:23:24;10.80;;;5.60;;
82869;SDS011;72645;47.136;15.420;2024-01-30T00:25:55;10.40;;;4.90;;
82869;SDS011;72645;47.136;15.420;2024-01-30T00:28:26;6.20;;;4.00;;
82869;SDS011;72645;47.136;15.420;2024-01-30T00:30:57;8.50;;;5.60;;
82869;SDS011;72645;47.136;15.420;2024-01-30T00:33:28;10.30;;;5.00;;
82869;SDS011;72645;47.136;15.420;2024-01-30T00:35:59;9.90;;;5.20;;
82869;SDS011;72645;47.136;15.420;2024-01-30T00:38:30;8.90;;;5.00;;
82869;SDS011;72645;47.136;15.420;2024-01-30T00:41:01;8.40;;;4.80;;
82869;SDS011;72645;47.136;15.420;2024-01-30T00:43:33;9.40;;;5.40;;
82869;SDS011;72645;47.136;15.420;2024-01-30T00:46:04;8.40;;;4.70;;
82869;SDS011;72645;47.136;15.420;2024-01-30T00:48:35;9.50;;;5.30;;
82869;SDS011;72645;47.136;15.420;2024-01-30T00:51:06;8.80;;;4.40;;
82869;SDS011;72645;47.136;15.420;2024-01-30T00:53:37;8.10;;;4.90;;
82869;SDS011;72645;47.136;15.420;2024-01-30T00:56:09;9.20;;;4.20;;
82869;SDS011;72645;47.136;15.420;2024-01-30T00:58:41;7.70;;;4.80;;
82869;SDS011;72645;47.136;15.420;2024-01-30T01:01:12;7.40;;;4.20;;
82869;SDS011;72645;47.136;15.420;2024-01-30T01:03:43;11.40;;;4.00;;
82869;SDS011;72645;47.136;15.420;2024-01-30T01:06:16;11.60;;;4.20;;
82869;SDS011;72645;47.136;15.420;2024-01-30T01:08:48;9.30;;;4.00;;
82869;SDS011;72645;47.136;15.420;2024-01-30T01:11:19;8.10;;;4.10;;
82869;SDS011;72645;47.136;15.420;2024-01-30T01:13:50;7.50;;;4.20;;
82869;SDS011;72645;47.136;15.420;2024-01-30T01:18:50;16.60;;;7.90;;
82869;SDS011;72645;47.136;15.420;2024-01-30T01:21:21;14.90;;;5.70;;
82869;SDS011;72645;47.136;15.420;2024-01-30T01:23:52;8.80;;;5.00;;
82869;SDS011;72645;47.136;15.420;2024-01-30T01:26:24;14.60;;;5.00;;
82869;SDS011;72645;47.136;15.420;2024-01-30T01:28:55;9.20;;;4.50;;
82869;SDS011;72645;47.136;15.420;2024-01-30T01:31:26;7.80;;;3.90;;
82869;SDS011;72645;47.136;15.420;2024-01-30T01:33:57;6.80;;;3.30;;
82869;SDS011;72645;47.136;15.420;2024-01-30T01:36:29;9.40;;;4.90;;
82869;SDS011;72645;47.136;15.420;2024-01-30T01:39:00;9.80;;;5.10;;
82869;SDS011;72645;47.136;15.420;2024-01-30T01:41:31;8.40;;;4.20;;
82869;SDS011;72645;47.136;15.420;2024-01-30T01:44:02;6.50;;;3.90;;
82869;SDS011;72645;47.136;15.420;2024-01-30T01:46:34;6.40;;;4.20;;
82869;SDS011;72645;47.136;15.420;2024-01-30T01:49:06;9.30;;;4.00;;
82869;SDS011;72645;47.136;15.420;2024-01-30T01:51:37;8.50;;;4.20;;
82869;SDS011;72645;47.136;15.420;2024-01-30T01:54:11;10.40;;;3.60;;
82869;SDS011;72645;47.136;15.420;2024-01-30T01:56:43;11.20;;;4.00;;
82869;SDS011;72645;47.136;15.420;2024-01-30T01:59:14;7.80;;;4.00;;
82869;SDS011;72645;47.136;15.420;2024-01-30T02:01:46;7.10;;;4.10;;
82869;SDS011;72645;47.136;15.420;2024-01-30T02:04:19;7.90;;;3.40;;
82869;SDS011;72645;47.136;15.420;2024-01-30T02:06:50;7.60;;;4.20;;
82869;SDS011;72645;47.136;15.420;2024-01-30T02:09:21;7.70;;;3.80;;
82869;SDS011;72645;47.136;15.420;2024-01-30T02:11:52;8.80;;;3.90;;
82869;SDS011;72645;47.136;15.420;2024-01-30T02:14:24;8.20;;;3.70;;
82869;SDS011;72645;47.136;15.420;2024-01-30T02:16:58;8.60;;;3.40;;
82869;SDS011;72645;47.136;15.420;2024-01-30T02:19:29;9.60;;;3.90;;
82869;SDS011;72645;47.136;15.420;2024-01-30T02:22:00;6.30;;;4.10;;
82869;SDS011;72645;47.136;15.420;2024-01-30T02:24:32;10.60;;;5.20;;
82869;SDS011;72645;47.136;15.420;2024-01-30T02:29:32;19.40;;;7.10;;
82869;SDS011;72645;47.136;15.420;2024-01-30T02:32:03;10.20;;;5.00;;
82869;SDS011;72645;47.136;15.420;2024-01-30T02:34:35;14.20;;;5.40;;
82869;SDS011;72645;47.136;15.420;2024-01-30T02:37:07;12.60;;;5.10;;
82869;SDS011;72645;47.136;15.420;2024-01-30T02:39:38;10.20;;;4.50;;
82869;SDS011;72645;47.136;15.420;2024-01-30T02:42:09;12.30;;;5.40;;
82869;SDS011;72645;47.136;15.420;2024-01-30T02:44:40;14.00;;;5.60;;
82869;SDS011;72645;47.136;15.420;2024-01-30T02:47:11;13.00;;;5.40;;
82869;SDS011;72645;47.136;15.420;2024-01-30T02:49:42;10.50;;;5.00;;
82869;SDS011;72645;47.136;15.420;2024-01-30T02:52:13;9.50;;;5.20;;
82869;SDS011;72645;47.136;15.420;2024-01-30T02:54:44;11.60;;;4.70;;
82869;SDS011;72645;47.136;15.420;2024-01-30T02:57:15;9.00;;;4.20;;
82869;SDS011;72645;47.136;15.420;2024-01-30T02:59:46;9.50;;;4.30;;
82869;SDS011;72645;47.136;15.420;2024-01-30T03:02:17;8.50;;;4.20;;
82869;SDS011;72645;47.136;15.420;2024-01-30T03:04:48;7.50;;;3.80;;
82869;SDS011;72645;47.136;15.420;2024-01-30T03:07:20;12.70;;;4.60;;
82869;SDS011;72645;47.136;15.420;2024-01-30T03:09:51;12.40;;;5.60;;
82869;SDS011;72645;47.136;15.420;2024-01-30T03:12:23;14.80;;;5.60;;
82869;SDS011;72645;47.136;15.420;2024-01-30T03:14:54;11.60;;;4.20;;
82869;SDS011;72645;47.136;15.420;2024-01-30T03:17:25;7.30;;;3.90;;
82869;SDS011;72645;47.136;15.420;2024-01-30T03:19:56;9.80;;;4.10;;
82869;SDS011;72645;47.136;15.420;2024-01-30T03:22:28;10.60;;;4.50;;
82869;SDS011;72645;47.136;15.420;2024-01-30T03:24:59;5.40;;;3.90;;
82869;SDS011;72645;47.136;15.420;2024-01-30T03:27:30;8.80;;;3.30;;
82869;SDS011;72645;47.136;15.420;2024-01-30T03:30:01;4.20;;;2.90;;
82869;SDS011;72645;47.136;15.420;2024-01-30T03:32:33;10.30;;;3.80;;
82869;SDS011;72645;47.136;15.420;2024-01-30T03:35:04;10.80;;;4.50;;
82869;SDS011;72645;47.136;15.420;2024-01-30T03:37:36;13.50;;;6.90;;
82869;SDS011;72645;47.136;15.420;2024-01-30T03:42:37;9.80;;;5.10;;
82869;SDS011;72645;47.136;15.420;2024-01-30T03:45:09;11.10;;;4.90;;
82869;SDS011;72645;47.136;15.420;2024-01-30T03:47:41;13.10;;;4.80;;
82869;SDS011;72645;47.136;15.420;2024-01-30T03:50:14;7.40;;;4.70;;
82869;SDS011;72645;47.136;15.420;2024-01-30T03:52:45;6.30;;;4.00;;
82869;SDS011;72645;47.136;15.420;2024-01-30T03:55:16;6.10;;;3.40;;
82869;SDS011;72645;47.136;15.420;2024-01-30T03:57:47;4.80;;;2.60;;
82869;SDS011;72645;47.136;15.420;2024-01-30T04:00:18;7.70;;;3.80;;
82869;SDS011;72645;47.136;15.420;2024-01-30T04:02:50;6.60;;;2.90;;
82869;SDS011;72645;47.136;15.420;2024-01-30T04:05:21;6.40;;;4.20;;
82869;SDS011;72645;47.136;15.420;2024-01-30T04:07:52;8.10;;;3.30;;
82869;SDS011;72645;47.136;15.420;2024-01-30T04:12:53;3.80;;;2.70;;
82869;SDS011;72645;47.136;15.420;2024-01-30T04:15:24;4.10;;;2.60;;
82869;SDS011;72645;47.136;15.420;2024-01-30T04:17:56;6.10;;;2.50;;
82869;SDS011;72645;47.136;15.420;2024-01-30T04:20:29;4.00;;;2.70;;
82869;SDS011;72645;47.136;15.420;2024-01-30T04:23:00;5.80;;;3.20;;
82869;SDS011;72645;47.136;15.420;2024-01-30T04:25:31;7.90;;;3.80;;
82869;SDS011;72645;47.136;15.420;2024-01-30T04:30:32;4.50;;;2.60;;
82869;SDS011;72645;47.136;15.420;2024-01-30T04:35:33;5.60;;;3.80;;
82869;SDS011;72645;47.136;15.420;2024-01-30T04:38:05;6.20;;;3.70;;
82869;SDS011;72645;47.136;15.420;2024-01-30T04:40:36;10.10;;;4.90;;
82869;SDS011;72645;47.136;15.420;2024-01-30T04:43:07;16.20;;;8.20;;
82869;SDS011;72645;47.136;15.420;2024-01-30T04:45:38;13.30;;;6.50;;
82869;SDS011;72645;47.136;15.420;2024-01-30T04:48:09;8.10;;;4.80;;
82869;SDS011;72645;47.136;15.420;2024-01-30T04:50:40;8.00;;;4.60;;
82869;SDS011;72645;47.136;15.420;2024-01-30T04:55:40;6.70;;;3.00;;
82869;SDS011;72645;47.136;15.420;2024-01-30T05:00:41;4.00;;;2.40;;
82869;SDS011;72645;47.136;15.420;2024-01-30T05:03:14;5.30;;;3.40;;
82869;SDS011;72645;47.136;15.420;2024-01-30T05:05:45;12.50;;;5.00;;
82869;SDS011;72645;47.136;15.420;2024-01-30T05:08:17;8.70;;;4.80;;
82869;SDS011;72645;47.136;15.420;2024-01-30T05:10:48;7.80;;;3.60;;
82869;SDS011;72645;47.136;15.420;2024-01-30T05:15:48;3.20;;;1.80;;
82869;SDS011;72645;47.136;15.420;2024-01-30T05:20:49;5.50;;;2.70;;
82869;SDS011;72645;47.136;15.420;2024-01-30T05:23:20;6.70;;;3.20;;
82869;SDS011;72645;47.136;15.420;2024-01-30T05:28:20;6.90;;;2.60;;
82869;SDS011;72645;47.136;15.420;2024-01-30T05:30:52;6.50;;;2.70;;
82869;SDS011;72645;47.136;15.420;2024-01-30T05:33:23;5.40;;;3.20;;
82869;SDS011;72645;47.136;15.420;2024-01-30T05:35:54;5.10;;;2.80;;
82869;SDS011;72645;47.136;15.420;2024-01-30T05:43:25;6.00;;;3.00;;
82869;SDS011;72645;47.136;15.420;2024-01-30T05:45:56;6.70;;;3.00;;
82869;SDS011;72645;47.136;15.420;2024-01-30T05:50:57;5.60;;;2.40;;
82869;SDS011;72645;47.136;15.420;2024-01-30T05:53:29;5.60;;;2.40;;
82869;SDS011;72645;47.136;15.420;2024-01-30T05:58:30;5.10;;;2.50;;
82869;SDS011;72645;47.136;15.420;2024-01-30T06:03:31;10.80;;;4.80;;
82869;SDS011;72645;47.136;15.420;2024-01-30T06:08:31;16.50;;;7.10;;
82869;SDS011;72645;47.136;15.420;2024-01-30T06:13:32;10.20;;;4.50;;
82869;SDS011;72645;47.136;15.420;2024-01-30T06:18:34;6.70;;;3.60;;
82869;SDS011;72645;47.136;15.420;2024-01-30T06:23:38;6.60;;;3.80;;
82869;SDS011;72645;47.136;15.420;2024-01-30T06:28:38;5.50;;;3.60;;
82869;SDS011;72645;47.136;15.420;2024-01-30T06:33:39;11.90;;;3.80;;
82869;SDS011;72645;47.136;15.420;2024-01-30T06:36:11;8.50;;;4.80;;
82869;SDS011;72645;47.136;15.420;2024-01-30T06:38:42;9.70;;;4.40;;
82869;SDS011;72645;47.136;15.420;2024-01-30T06:43:43;5.20;;;3.30;;
82869;SDS011;72645;47.136;15.420;2024-01-30T06:46:14;7.10;;;2.70;;
82869;SDS011;72645;47.136;15.420;2024-01-30T06:48:45;6.80;;;3.10;;
82869;SDS011;72645;47.136;15.420;2024-01-30T06:51:16;7.60;;;4.10;;
82869;SDS011;72645;47.136;15.420;2024-01-30T06:53:47;6.10;;;3.20;;
82869;SDS011;72645;47.136;15.420;2024-01-30T06:58:49;6.60;;;3.20;;
82869;SDS011;72645;47.136;15.420;2024-01-30T07:01:20;12.50;;;3.30;;
82869;SDS011;72645;47.136;15.420;2024-01-30T07:03:56;7.50;;;3.50;;
82869;SDS011;72645;47.136;15.420;2024-01-30T07:06:28;7.50;;;3.20;;
82869;SDS011;72645;47.136;15.420;2024-01-30T07:08:59;5.60;;;2.90;;
82869;SDS011;72645;47.136;15.420;2024-01-30T07:11:31;7.50;;;3.50;;
82869;SDS011;72645;47.136;15.420;2024-01-30T07:16:32;6.20;;;3.10;;
82869;SDS011;72645;47.136;15.420;2024-01-30T07:19:04;13.40;;;6.40;;
82869;SDS011;72645;47.136;15.420;2024-01-30T07:21:37;23.60;;;10.70;;
82869;SDS011;72645;47.136;15.420;2024-01-30T07:24:08;31.40;;;13.40;;
82869;SDS011;72645;47.136;15.420;2024-01-30T07:26:40;21.50;;;10.60;;
82869;SDS011;72645;47.136;15.420;2024-01-30T07:29:11;18.50;;;9.20;;
82869;SDS011;72645;47.136;15.420;2024-01-30T07:31:42;20.00;;;7.20;;
82869;SDS011;72645;47.136;15.420;2024-01-30T07:34:13;16.90;;;8.80;;
82869;SDS011;72645;47.136;15.420;2024-01-30T07:36:45;17.30;;;10.10;;
82869;SDS011;72645;47.136;15.420;2024-01-30T07:39:16;19.30;;;9.10;;
82869;SDS011;72645;47.136;15.420;2024-01-30T07:41:47;15.10;;;6.90;;
82869;SDS011;72645;47.136;15.420;2024-01-30T07:44:18;12.70;;;6.50;;
82869;SDS011;72645;47.136;15.420;2024-01-30T07:46:50;10.80;;;5.70;;
82869;SDS011;72645;47.136;15.420;2024-01-30T07:49:21;16.20;;;7.40;;
82869;SDS011;72645;47.136;15.420;2024-01-30T07:51:52;12.50;;;5.90;;
82869;SDS011;72645;47.136;15.420;2024-01-30T07:54:23;11.40;;;6.30;;
82869;SDS011;72645;47.136;15.420;2024-01-30T07:56:54;9.10;;;5.50;;
82869;SDS011;72645;47.136;15.420;2024-01-30T07:59:25;13.60;;;6.10;;
82869;SDS011;72645;47.136;15.420;2024-01-30T08:01:56;11.60;;;5.20;;
82869;SDS011;72645;47.136;15.420;2024-01-30T08:04:28;14.80;;;5.20;;
82869;SDS011;72645;47.136;15.420;2024-01-30T08:06:59;13.50;;;6.30;;
82869;SDS011;72645;47.136;15.420;2024-01-30T08:09:30;11.20;;;5.90;;
82869;SDS011;72645;47.136;15.420;2024-01-30T08:12:01;10.10;;;5.20;;
82869;SDS011;72645;47.136;15.420;2024-01-30T08:14:33;11.20;;;4.90;;
82869;SDS011;72645;47.136;15.420;2024-01-30T08:17:04;12.00;;;6.20;;
82869;SDS011;72645;47.136;15.420;2024-01-30T08:19:36;9.00;;;3.80;;
82869;SDS011;72645;47.136;15.420;2024-01-30T08:22:07;8.30;;;5.10;;
82869;SDS011;72645;47.136;15.420;2024-01-30T08:24:38;8.30;;;4.50;;
82869;SDS011;72645;47.136;15.420;2024-01-30T08:27:10;9.20;;;4.80;;
82869;SDS011;72645;47.136;15.420;2024-01-30T08:29:41;10.10;;;4.50;;
82869;SDS011;72645;47.136;15.420;2024-01-30T08:32:12;11.00;;;6.10;;
82869;SDS011;72645;47.136;15.420;2024-01-30T08:34:43;14.40;;;4.90;;
82869;SDS011;72645;47.136;15.420;2024-01-30T08:37:14;12.70;;;5.90;;
82869;SDS011;72645;47.136;15.420;2024-01-30T08:39:45;10.20;;;6.00;;
82869;SDS011;72645;47.136;15.420;2024-01-30T08:42:16;12.50;;;6.20;;
82869;SDS011;72645;47.136;15.420;2024-01-30T08:44:51;11.00;;;4.80;;
82869;SDS011;72645;47.136;15.420;2024-01-30T08:47:22;11.60;;;5.40;;
82869;SDS011;72645;47.136;15.420;2024-01-30T08:49:53;10.70;;;5.30;;
82869;SDS011;72645;47.136;15.420;2024-01-30T08:52:24;9.70;;;4.30;;
82869;SDS011;72645;47.136;15.420;2024-01-30T08:54:55;12.50;;;4.80;;
82869;SDS011;72645;47.136;15.420;2024-01-30T08:57:26;12.20;;;5.50;;
82869;SDS011;72645;47.136;15.420;2024-01-30T08:59:58;10.30;;;5.30;;
82869;SDS011;72645;47.136;15.420;2024-01-30T09:02:35;7.10;;;4.80;;
82869;SDS011;72645;47.136;15.420;2024-01-30T09:05:06;8.50;;;4.30;;
82869;SDS011;72645;47.136;15.420;2024-01-30T09:07:38;18.90;;;6.00;;
82869;SDS011;72645;47.136;15.420;2024-01-30T09:10:10;13.40;;;6.30;;
82869;SDS011;72645;47.136;15.420;2024-01-30T09:12:43;8.90;;;4.90;;
82869;SDS011;72645;47.136;15.420;2024-01-30T09:15:14;10.50;;;4.90;;
82869;SDS011;72645;47.136;15.420;2024-01-30T09:17:45;19.60;;;5.90;;
82869;SDS011;72645;47.136;15.420;2024-01-30T09:20:16;16.70;;;7.00;;
82869;SDS011;72645;47.136;15.420;2024-01-30T09:22:50;9.20;;;5.10;;
82869;SDS011;72645;47.136;15.420;2024-01-30T09:25:21;11.60;;;6.00;;
82869;SDS011;72645;47.136;15.420;2024-01-30T09:27:52;12.90;;;5.20;;
82869;SDS011;72645;47.136;15.420;2024-01-30T09:30:23;12.50;;;6.10;;
82869;SDS011;72645;47.136;15.420;2024-01-30T09:32:54;14.40;;;6.00;;
82869;SDS011;72645;47.136;15.420;2024-01-30T09:35:25;11.60;;;5.50;;
82869;SDS011;72645;47.136;15.420;2024-01-30T09:37:57;14.60;;;5.50;;
82869;SDS011;72645;47.136;15.420;2024-01-30T09:40:28;13.70;;;6.00;;
82869;SDS011;72645;47.136;15.420;2024-01-30T09:42:59;16.00;;;5.70;;
82869;SDS011;72645;47.136;15.420;2024-01-30T09:45:31;7.00;;;4.40;;
82869;SDS011;72645;47.136;15.420;2024-01-30T09:48:04;21.70;;;6.10;;
82869;SDS011;72645;47.136;15.420;2024-01-30T09:50:36;9.30;;;4.00;;
82869;SDS011;72645;47.136;15.420;2024-01-30T09:53:07;8.00;;;4.70;;
82869;SDS011;72645;47.136;15.420;2024-01-30T09:55:40;11.70;;;6.10;;
82869;SDS011;72645;47.136;15.420;2024-01-30T09:58:14;11.70;;;5.40;;
82869;SDS011;72645;47.136;15.420;2024-01-30T10:00:46;12.20;;;5.30;;
82869;SDS011;72645;47.136;15.420;2024-01-30T10:03:17;13.20;;;6.20;;
82869;SDS011;72645;47.136;15.420;2024-01-30T10:05:50;11.30;;;5.90;;
82869;SDS011;72645;47.136;15.420;2024-01-30T10:08:21;15.80;;;6.20;;
82869;SDS011;72645;47.136;15.420;2024-01-30T10:10:52;12.30;;;5.30;;
82869;SDS011;72645;47.136;15.420;2024-01-30T10:13:24;13.70;;;6.50;;
82869;SDS011;72645;47.136;15.420;2024-01-30T10:15:55;11.20;;;6.10;;
82869;SDS011;72645;47.136;15.420;2024-01-30T10:18:26;13.20;;;5.50;;
82869;SDS011;72645;47.136;15.420;2024-01-30T10:20:58;10.80;;;5.40;;
82869;SDS011;72645;47.136;15.420;2024-01-30T10:23:30;10.80;;;6.20;;
82869;SDS011;72645;47.136;15.420;2024-01-30T10:26:03;14.00;;;5.30;;
82869;SDS011;72645;47.136;15.420;2024-01-30T10:28:36;12.30;;;6.10;;
82869;SDS011;72645;47.136;15.420;2024-01-30T10:31:07;11.00;;;5.90;;
82869;SDS011;72645;47.136;15.420;2024-01-30T10:33:38;12.70;;;5.70;;
82869;SDS011;72645;47.136;15.420;2024-01-30T10:36:09;11.40;;;5.90;;
82869;SDS011;72645;47.136;15.420;2024-01-30T10:38:48;19.90;;;7.40;;
82869;SDS011;72645;47.136;15.420;2024-01-30T10:41:24;17.60;;;6.50;;
82869;SDS011;72645;47.136;15.420;2024-01-30T10:44:08;19.00;;;6.10;;
82869;SDS011;72645;47.136;15.420;2024-01-30T10:46:41;15.90;;;6.20;;
82869;SDS011;72645;47.136;15.420;2024-01-30T10:49:17;18.20;;;6.60;;
82869;SDS011;72645;47.136;15.420;2024-01-30T10:51:49;14.10;;;7.50;;
82869;SDS011;72645;47.136;15.420;2024-01-30T10:54:21;18.90;;;7.90;;
82869;SDS011;72645;47.136;15.420;2024-01-30T10:56:54;18.60;;;6.60;;
82869;SDS011;72645;47.136;15.420;2024-01-30T10:59:26;19.10;;;8.00;;
82869;SDS011;72645;47.136;15.420;2024-01-30T11:01:59;20.70;;;9.70;;
82869;SDS011;72645;47.136;15.420;2024-01-30T11:04:36;16.60;;;8.40;;
82869;SDS011;72645;47.136;15.420;2024-01-30T11:07:16;22.20;;;9.40;;
82869;SDS011;72645;47.136;15.420;2024-01-30T11:09:52;22.20;;;10.20;;
82869;SDS011;72645;47.136;15.420;2024-01-30T11:12:32;19.40;;;9.30;;
82869;SDS011;72645;47.136;15.420;2024-01-30T11:15:09;18.80;;;9.40;;
82869;SDS011;72645;47.136;15.420;2024-01-30T11:17:42;24.90;;;10.00;;
82869;SDS011;72645;47.136;15.420;2024-01-30T11:20:15;21.00;;;9.60;;
82869;SDS011;72645;47.136;15.420;2024-01-30T11:22:49;20.70;;;11.30;;
82869;SDS011;72645;47.136;15.420;2024-01-30T11:25:22;21.70;;;10.10;;
82869;SDS011;72645;47.136;15.420;2024-01-30T11:27:55;19.50;;;10.30;;
82869;SDS011;72645;47.136;15.420;2024-01-30T11:30:26;20.70;;;10.30;;
82869;SDS011;72645;47.136;15.420;2024-01-30T11:33:00;19.00;;;9.70;;
82869;SDS011;72645;47.136;15.420;2024-01-30T11:35:36;21.40;;;11.30;;
82869;SDS011;72645;47.136;15.420;2024-01-30T11:38:08;29.00;;;11.60;;
82869;SDS011;72645;47.136;15.420;2024-01-30T11:40:40;18.70;;;10.10;;
82869;SDS011;72645;47.136;15.420;2024-01-30T11:43:12;21.00;;;9.90;;
82869;SDS011;72645;47.136;15.420;2024-01-30T11:45:44;23.20;;;11.60;;
82869;SDS011;72645;47.136;15.420;2024-01-30T11:48:16;25.50;;;10.40;;
82869;SDS011;72645;47.136;15.420;2024-01-30T11:50:48;23.20;;;10.40;;
82869;SDS011;72645;47.136;15.420;2024-01-30T11:53:19;29.30;;;11.80;;
82869;SDS011;72645;47.136;15.420;2024-01-30T11:55:51;24.60;;;11.80;;
82869;SDS011;72645;47.136;15.420;2024-01-30T11:58:25;24.70;;;11.70;;
82869;SDS011;72645;47.136;15.420;2024-01-30T12:00:56;23.60;;;12.40;;
82869;SDS011;72645;47.136;15.420;2024-01-30T12:03:28;25.80;;;11.80;;
82869;SDS011;72645;47.136;15.420;2024-01-30T12:05:59;24.70;;;12.90;;
82869;SDS011;72645;47.136;15.420;2024-01-30T12:08:32;25.50;;;11.20;;
82869;SDS011;72645;47.136;15.420;2024-01-30T12:11:06;22.20;;;11.90;;
82869;SDS011;72645;47.136;15.420;2024-01-30T12:13:37;23.00;;;12.70;;
82869;SDS011;72645;47.136;15.420;2024-01-30T12:16:08;22.00;;;11.60;;
82869;SDS011;72645;47.136;15.420;2024-01-30T12:18:41;22.40;;;12.30;;
82869;SDS011;72645;47.136;15.420;2024-01-30T12:21:15;21.40;;;11.30;;
82869;SDS011;72645;47.136;15.420;2024-01-30T12:23:47;23.20;;;11.80;;
82869;SDS011;72645;47.136;15.420;2024-01-30T12:26:18;21.40;;;11.40;;
82869;SDS011;72645;47.136;15.420;2024-01-30T12:28:49;23.50;;;11.30;;
82869;SDS011;72645;47.136;15.420;2024-01-30T12:31:26;23.10;;;11.00;;
82869;SDS011;72645;47.136;15.420;2024-01-30T12:33:59;22.40;;;11.70;;
82869;SDS011;72645;47.136;15.420;2024-01-30T12:36:30;21.50;;;12.00;;
82869;SDS011;72645;47.136;15.420;2024-01-30T12:39:01;17.90;;;11.20;;
82869;SDS011;72645;47.136;15.420;2024-01-30T12:41:33;20.80;;;9.70;;
82869;SDS011;72645;47.136;15.420;2024-01-30T12:44:05;19.70;;;10.50;;
82869;SDS011;72645;47.136;15.420;2024-01-30T12:46:37;16.20;;;10.40;;
82869;SDS011;72645;47.136;15.420;2024-01-30T12:49:08;20.60;;;9.90;;
82869;SDS011;72645;47.136;15.420;2024-01-30T12:51:39;18.90;;;9.50;;
82869;SDS011;72645;47.136;15.420;2024-01-30T12:54:12;16.00;;;9.30;;
82869;SDS011;72645;47.136;15.420;2024-01-30T12:56:43;19.40;;;9.70;;
82869;SDS011;72645;47.136;15.420;2024-01-30T12:59:14;19.60;;;9.50;;
82869;SDS011;72645;47.136;15.420;2024-01-30T13:01:45;25.70;;;9.60;;
82869;SDS011;72645;47.136;15.420;2024-01-30T13:04:16;21.80;;;9.30;;
82869;SDS011;72645;47.136;15.420;2024-01-30T13:06:48;20.50;;;9.30;;
82869;SDS011;72645;47.136;15.420;2024-01-30T13:09:19;22.20;;;11.30;;
82869;SDS011;72645;47.136;15.420;2024-01-30T13:11:50;24.90;;;10.20;;
82869;SDS011;72645;47.136;15.420;2024-01-30T13:14:21;21.60;;;9.90;;
82869;SDS011;72645;47.136;15.420;2024-01-30T13:16:53;20.20;;;9.10;;
82869;SDS011;72645;47.136;15.420;2024-01-30T13:19:24;16.40;;;10.10;;
82869;SDS011;72645;47.136;15.420;2024-01-30T13:21:55;17.70;;;9.60;;
82869;SDS011;72645;47.136;15.420;2024-01-30T13:24:26;18.60;;;8.90;;
82869;SDS011;72645;47.136;15.420;2024-01-30T13:26:57;19.20;;;9.80;;
82869;SDS011;72645;47.136;15.420;2024-01-30T13:29:28;21.80;;;9.50;;
82869;SDS011;72645;47.136;15.420;2024-01-30T13:31:59;18.90;;;9.20;;
82869;SDS011;72645;47.136;15.420;2024-01-30T13:34:30;20.70;;;10.00;;
82869;SDS011;72645;47.136;15.420;2024-01-30T13:37:01;22.30;;;10.00;;
82869;SDS011;72645;47.136;15.420;2024-01-30T13:39:33;15.50;;;9.40;;
82869;SDS011;72645;47.136;15.420;2024-01-30T13:42:06;18.90;;;9.20;;
82869;SDS011;72645;47.136;15.420;2024-01-30T13:44:38;22.30;;;9.70;;
82869;SDS011;72645;47.136;15.420;2024-01-30T13:47:11;15.40;;;9.20;;
82869;SDS011;72645;47.136;15.420;2024-01-30T13:49:42;17.80;;;9.50;;
82869;SDS011;72645;47.136;15.420;2024-01-30T13:52:13;16.40;;;8.60;;
82869;SDS011;72645;47.136;15.420;2024-01-30T13:54:45;18.30;;;8.20;;
82869;SDS011;72645;47.136;15.420;2024-01-30T13:57:16;16.90;;;7.90;;
82869;SDS011;72645;47.136;15.420;2024-01-30T13:59:47;20.50;;;8.80;;
82869;SDS011;72645;47.136;15.420;2024-01-30T14:02:19;15.00;;;7.90;;
82869;SDS011;72645;47.136;15.420;2024-01-30T14:04:50;16.90;;;9.10;;
82869;SDS011;72645;47.136;15.420;2024-01-30T14:07:22;18.00;;;8.70;;
82869;SDS011;72645;47.136;15.420;2024-01-30T14:09:53;12.70;;;7.90;;
82869;SDS011;72645;47.136;15.420;2024-01-30T14:12:24;22.60;;;9.60;;
82869;SDS011;72645;47.136;15.420;2024-01-30T14:14:56;14.90;;;8.00;;
82869;SDS011;72645;47.136;15.420;2024-01-30T14:17:29;15.80;;;8.50;;
82869;SDS011;72645;47.136;15.420;2024-01-30T14:20:00;17.40;;;8.00;;
82869;SDS011;72645;47.136;15.420;2024-01-30T14:22:32;17.30;;;8.20;;
82869;SDS011;72645;47.136;15.420;2024-01-30T14:25:04;17.70;;;8.00;;
82869;SDS011;72645;47.136;15.420;2024-01-30T14:27:36;16.50;;;8.10;;
82869;SDS011;72645;47.136;15.420;2024-01-30T14:30:08;12.80;;;7.60;;
82869;SDS011;72645;47.136;15.420;2024-01-30T14:32:41;18.20;;;8.20;;
82869;SDS011;72645;47.136;15.420;2024-01-30T14:35:13;16.60;;;7.90;;
82869;SDS011;72645;47.136;15.420;2024-01-30T14:37:45;16.30;;;8.30;;
82869;SDS011;72645;47.136;15.420;2024-01-30T14:40:17;15.30;;;7.90;;
82869;SDS011;72645;47.136;15.420;2024-01-30T14:42:49;19.70;;;8.10;;
82869;SDS011;72645;47.136;15.420;2024-01-30T14:45:20;16.00;;;7.40;;
82869;SDS011;72645;47.136;15.420;2024-01-30T14:47:51;20.90;;;7.60;;
82869;SDS011;72645;47.136;15.420;2024-01-30T14:50:24;11.30;;;7.20;;
82869;SDS011;72645;47.136;15.420;2024-01-30T14:52:56;18.80;;;8.50;;
82869;SDS011;72645;47.136;15.420;2024-01-30T14:55:27;16.90;;;7.90;;
82869;SDS011;72645;47.136;15.420;2024-01-30T14:57:58;18.00;;;8.80;;
82869;SDS011;72645;47.136;15.420;2024-01-30T15:00:30;14.20;;;8.00;;
82869;SDS011;72645;47.136;15.420;2024-01-30T15:03:02;14.80;;;6.70;;
82869;SDS011;72645;47.136;15.420;2024-01-30T15:05:33;23.40;;;8.10;;
82869;SDS011;72645;47.136;15.420;2024-01-30T15:08:04;16.40;;;7.30;;
82869;SDS011;72645;47.136;15.420;2024-01-30T15:10:36;16.40;;;8.30;;
82869;SDS011;72645;47.136;15.420;2024-01-30T15:13:07;16.40;;;7.70;;
82869;SDS011;72645;47.136;15.420;2024-01-30T15:15:39;18.70;;;7.90;;
82869;SDS011;72645;47.136;15.420;2024-01-30T15:18:10;21.20;;;7.80;;
82869;SDS011;72645;47.136;15.420;2024-01-30T15:20:41;16.00;;;8.00;;
82869;SDS011;72645;47.136;15.420;2024-01-30T15:23:12;17.80;;;8.60;;
82869;SDS011;72645;47.136;15.420;2024-01-30T15:25:43;19.60;;;8.50;;
82869;SDS011;72645;47.136;15.420;2024-01-30T15:28:15;22.70;;;8.10;;
82869;SDS011;72645;47.136;15.420;2024-01-30T15:30:47;17.00;;;7.20;;
82869;SDS011;72645;47.136;15.420;2024-01-30T15:33:18;28.20;;;9.60;;
82869;SDS011;72645;47.136;15.420;2024-01-30T15:35:49;19.90;;;10.00;;
82869;SDS011;72645;47.136;15.420;2024-01-30T15:38:20;29.00;;;9.40;;
82869;SDS011;72645;47.136;15.420;2024-01-30T15:40:51;20.40;;;9.10;;
82869;SDS011;72645;47.136;15.420;2024-01-30T15:43:22;22.00;;;9.00;;
82869;SDS011;72645;47.136;15.420;2024-01-30T15:45:54;20.00;;;9.40;;
82869;SDS011;72645;47.136;15.420;2024-01-30T15:48:25;22.40;;;9.60;;
82869;SDS011;72645;47.136;15.420;2024-01-30T15:50:57;20.90;;;9.70;;